Details From LFBD - Bordeaux Merignac
To LFBM - MONT DE MARSAN
Flight Number -
Tags decoded
Created
Modified
Stats Distance 82 nm / 152 km
Max Altitude 0 ft / 0 m
Waypoints 4
Social Downloads 3
Likes 0
Share VATSIM

Download

Looking for another format? Having issues loading an existing format? Contact us
Advertisement - Login to hide

Notes

Requested: LFBD LFDC LFBC LFIL LFBM

Route

LFBD LFBC LFIL LFBM

ID Type Via Altitude Latitude Longitude Leg Dist Tot Dist Heading (true) Name
O LFBD APT - 0 ft / 0 m 44.82876˚ -0.71476˚ - 0 nm - Bordeaux Merignac
LFBC APT - 0 ft / 0 m 44.53402˚ -1.12535˚ 24 nm 24 nm 225° / 225° CAZAUX
LFIL APT - 0 ft / 0 m 43.91488˚ -0.95019˚ 37 nm 62 nm 168° / 169° Rion Des Landes
O LFBM APT - 0 ft / 0 m 43.91150˚ -0.50937˚ 19 nm 81 nm 90° / 91° MONT DE MARSAN

Altitude Profile

Advertisement - Login to hide

LFBD

Details ICAO LFBD (BOD)
Name Bordeaux Merignac
Region France
Timezone Europe/Paris (UTC+2.0)
Stats Elevation 166 ft / 51 m (AMSL)
Location 44.828762° -0.714755°
Runways 2
Magnetic Variation 0.000° E

METAR

LFBD 251130Z AUTO 05013KT 010V080 CAVOK 26/08 Q1018 NOSIG

Decode

TAF

TAF LFBD 250500Z 2506/2612 04010KT CAVOK TX31/2515Z TN17/2506Z= TAF LFBO 250500Z 2506/2612 33006KT CAVOK BECMG 2519/2521 VRB03KT BECMG 2607/2609 14010KT

Decode

Departure Runways

ID Width Length Bearing (true) Bearing (mag) Surface Threshold Offset Overrun Length
05 148 ft / 45 m 10,164 ft / 3,098 m 45.48° 45.48° Asphalt 26 ft / 8 m 1,145 ft / 349 m
11 148 ft / 45 m 7,931 ft / 2,417 m 106.45° 106.45° Asphalt 26 ft / 8 m 1,198 ft / 365 m
23 148 ft / 45 m 10,164 ft / 3,098 m 225.50° 225.50° Asphalt 39 ft / 12 m 1,266 ft / 386 m
29 148 ft / 45 m 7,931 ft / 2,417 m 286.47° 286.47° Asphalt 33 ft / 10 m 1,201 ft / 366 m

LFBM

Details ICAO LFBM
Name MONT DE MARSAN
Region France
Timezone Europe/Paris (UTC+2.0)
Stats Elevation 203 ft / 62 m (AMSL)
Location 43.911504° -0.509371°
Runways 1
Magnetic Variation 0.109° E

METAR

LFBM 251130Z AUTO 02006KT 320V110 CAVOK 27/12 Q1017 NOSIG

Decode

TAF

TAF TAF LFBM 250800Z 2509/2609 05008KT CAVOK

Decode

Destination Runways

ID Width Length Bearing (true) Bearing (mag) Surface Threshold Offset Overrun Length
09 148 ft / 45 m 11,795 ft / 3,595 m 87.19° 87.08° Asphalt 0 ft / 0 m 1,328 ft / 405 m
27 148 ft / 45 m 11,795 ft / 3,595 m 267.22° 267.11° Asphalt 364 ft / 111 m 0 ft / 0 m

Approach Navaids

Runway Type Ident Frequency Range Bearing (true) Bearing (mag) Slope Elevation
09 Localiser MDM 110.50 MHz 18 nm / 33 km 87.23° 87.13° - 204 ft / 62 m (AMSL)
09 Glidescope MDM 110.50 MHz 10 nm / 19 km 87.21° 87.10° 3.00° 204 ft / 62 m (AMSL)
27 Localiser MDM 110.50 MHz 18 nm / 33 km 267.19° 267.08° - 220 ft / 67 m (AMSL)
27 Glidescope MDM 110.50 MHz 10 nm / 19 km 267.21° 267.10° 3.00° 250 ft / 76 m (AMSL)

Popular Alternatives